createdAt,value
2022-12-12T00:00:41.780Z,26.00
2022-12-12T00:03:11.241Z,27.40
2022-12-12T00:05:39.397Z,21.00
2022-12-12T00:08:07.527Z,32.40
2022-12-12T00:10:35.759Z,28.20
2022-12-12T00:13:03.799Z,25.00
2022-12-12T00:15:31.848Z,28.75
2022-12-12T00:17:59.915Z,28.50
2022-12-12T00:20:29.285Z,28.00
2022-12-12T00:22:57.362Z,22.75
2022-12-12T00:25:25.338Z,30.40
2022-12-12T00:27:53.875Z,28.25
2022-12-12T00:30:21.999Z,26.40
2022-12-12T00:32:50.029Z,18.00
2022-12-12T00:35:18.138Z,24.80
2022-12-12T00:37:47.523Z,24.60
2022-12-12T00:40:15.536Z,26.80
2022-12-12T00:42:43.565Z,25.20
2022-12-12T00:45:12.789Z,20.00
2022-12-12T00:47:40.978Z,25.00
2022-12-12T00:50:09.988Z,15.20
2022-12-12T00:52:38.009Z,21.00
2022-12-12T00:55:08.250Z,21.40
2022-12-12T00:57:36.292Z,22.50
2022-12-12T01:00:04.744Z,14.80
2022-12-12T01:02:32.875Z,13.60
2022-12-12T01:05:00.898Z,16.25
2022-12-12T01:07:28.927Z,10.50
2022-12-12T01:09:56.921Z,12.40
2022-12-12T01:12:26.294Z,12.40
2022-12-12T01:14:54.295Z,14.00
2022-12-12T01:17:22.321Z,9.00
2022-12-12T01:19:50.321Z,14.20
2022-12-12T01:22:18.351Z,8.00
2022-12-12T01:24:46.355Z,6.40
2022-12-12T01:27:14.409Z,6.00
2022-12-12T01:29:43.790Z,6.00
2022-12-12T01:32:11.810Z,6.00
2022-12-12T01:34:39.807Z,5.00
2022-12-12T01:37:07.827Z,5.50
2022-12-12T01:39:35.825Z,9.50
2022-12-12T01:42:03.891Z,7.50
2022-12-12T01:44:40.812Z,13.80
2022-12-12T01:47:10.198Z,8.20
2022-12-12T01:49:38.189Z,7.80
2022-12-12T01:52:08.897Z,6.00
2022-12-12T01:54:38.670Z,6.00
2022-12-12T01:57:08.023Z,5.60
2022-12-12T01:59:36.073Z,6.00
2022-12-12T02:02:04.140Z,6.00
2022-12-12T02:04:34.743Z,5.00
2022-12-12T02:07:03.301Z,6.00
2022-12-12T02:09:31.411Z,6.40
2022-12-12T02:11:59.649Z,7.00
2022-12-12T02:14:28.736Z,6.20
2022-12-12T02:17:31.936Z,4.20
2022-12-12T02:20:27.301Z,5.00
2022-12-12T02:23:09.972Z,8.60
2022-12-12T02:25:57.058Z,5.60
2022-12-12T02:28:53.090Z,9.00
2022-12-12T02:31:23.032Z,5.80
2022-12-12T02:33:54.569Z,8.00
2022-12-12T02:36:27.121Z,10.50
2022-12-12T02:38:57.437Z,10.00
2022-12-12T02:41:28.298Z,9.75
2022-12-12T02:44:00.722Z,9.25
2022-12-12T02:46:33.012Z,10.80
2022-12-12T02:49:02.821Z,10.75
2022-12-12T02:51:31.147Z,6.33
2022-12-12T02:54:00.144Z,10.75
2022-12-12T02:56:46.207Z,12.60
2022-12-12T02:59:15.797Z,16.20
2022-12-12T03:01:50.331Z,10.00
2022-12-12T03:04:42.719Z,12.60
2022-12-12T03:07:30.127Z,12.00
2022-12-12T03:10:03.030Z,11.20
2022-12-12T03:12:35.070Z,12.00
2022-12-12T03:15:05.208Z,8.00
2022-12-12T03:17:37.375Z,18.00
2022-12-12T03:20:08.217Z,12.50
2022-12-12T03:22:39.789Z,11.00
2022-12-12T03:25:11.581Z,13.80
2022-12-12T03:27:41.743Z,10.00
2022-12-12T03:30:12.124Z,8.00
2022-12-12T03:32:43.065Z,13.50
2022-12-12T03:35:13.390Z,9.50
2022-12-12T03:37:45.832Z,13.60
2022-12-12T03:40:15.083Z,16.20
2022-12-12T03:42:46.348Z,12.25
2022-12-12T03:45:16.133Z,9.00
2022-12-12T03:47:50.304Z,13.25
2022-12-12T03:50:20.202Z,14.75
2022-12-12T03:52:50.707Z,9.00
2022-12-12T03:55:22.140Z,9.00
2022-12-12T03:57:52.573Z,9.60
2022-12-12T04:00:20.831Z,12.25
2022-12-12T04:02:52.039Z,9.00
2022-12-12T04:05:21.585Z,8.80
2022-12-12T04:07:52.798Z,12.00
2022-12-12T04:10:47.000Z,15.00
2022-12-12T04:13:20.992Z,7.60
2022-12-12T04:15:54.274Z,13.40
2022-12-12T04:18:35.740Z,7.50
2022-12-12T04:21:32.597Z,8.50
2022-12-12T04:24:03.125Z,12.40
2022-12-12T04:26:42.898Z,15.33
2022-12-12T04:29:16.696Z,10.00
2022-12-12T04:31:48.598Z,10.80
2022-12-12T04:34:26.947Z,12.00
2022-12-12T04:36:55.695Z,8.25
2022-12-12T04:39:23.748Z,8.00
2022-12-12T04:41:52.141Z,12.50
2022-12-12T04:44:20.907Z,9.00
2022-12-12T04:46:50.373Z,9.00
2022-12-12T04:49:20.694Z,8.20
2022-12-12T04:51:49.782Z,8.60
2022-12-12T04:54:20.779Z,8.40
2022-12-12T04:56:50.595Z,9.00
2022-12-12T04:59:18.632Z,8.40
2022-12-12T05:01:53.175Z,15.40
2022-12-12T05:04:25.888Z,11.50
2022-12-12T05:06:56.287Z,8.00
2022-12-12T05:09:24.334Z,11.80
2022-12-12T05:11:52.345Z,8.00
2022-12-12T05:14:20.376Z,10.00
2022-12-12T05:16:49.555Z,9.00
2022-12-12T05:19:17.676Z,8.75
2022-12-12T05:21:47.133Z,8.00
2022-12-12T05:24:15.167Z,10.80
2022-12-12T05:26:43.180Z,12.75
2022-12-12T05:29:11.224Z,9.00
2022-12-12T05:31:39.249Z,8.00
2022-12-12T05:34:07.302Z,9.50
2022-12-12T05:36:35.308Z,13.20
2022-12-12T05:39:04.846Z,11.00
2022-12-12T05:41:32.863Z,12.50
2022-12-12T05:44:00.908Z,13.00
2022-12-12T05:46:28.982Z,11.00
2022-12-12T05:48:57.032Z,12.50
2022-12-12T05:51:25.294Z,11.00
2022-12-12T05:53:53.388Z,8.60
2022-12-12T05:56:22.747Z,11.67
2022-12-12T05:58:50.783Z,15.00
2022-12-12T06:01:18.792Z,15.80
2022-12-12T06:03:46.923Z,12.60
2022-12-12T06:06:14.991Z,17.00
2022-12-12T06:08:43.071Z,15.00
2022-12-12T06:11:11.159Z,11.00
2022-12-12T06:13:40.543Z,12.25
2022-12-12T06:16:09.491Z,8.00
2022-12-12T06:18:37.582Z,11.00
2022-12-12T06:21:06.146Z,11.40
2022-12-12T06:23:36.732Z,14.20
2022-12-12T06:26:04.944Z,16.25
2022-12-12T06:28:33.172Z,8.40
2022-12-12T06:31:04.568Z,8.00
2022-12-12T06:33:35.695Z,15.00
2022-12-12T06:36:04.919Z,13.00
2022-12-12T06:38:32.962Z,15.60
2022-12-12T06:41:01.100Z,10.00
2022-12-12T06:43:29.150Z,11.00
2022-12-12T06:46:03.735Z,11.00
2022-12-12T06:48:32.068Z,11.50
2022-12-12T06:51:00.202Z,11.25
2022-12-12T06:53:28.369Z,8.20
2022-12-12T06:55:56.396Z,12.00
2022-12-12T06:58:24.435Z,13.40
2022-12-12T07:00:53.168Z,12.00
2022-12-12T07:03:22.555Z,9.75
2022-12-12T07:05:50.570Z,12.75
2022-12-12T07:08:18.672Z,9.00
2022-12-12T07:10:46.788Z,11.75
2022-12-12T07:13:14.815Z,14.00
2022-12-12T07:15:45.726Z,9.00
2022-12-12T07:18:13.847Z,12.50
2022-12-12T07:20:43.489Z,13.00
2022-12-12T07:23:11.908Z,17.20
2022-12-12T07:25:40.799Z,16.00
2022-12-12T07:28:08.936Z,9.00
2022-12-12T07:30:39.548Z,13.00
2022-12-12T07:33:07.698Z,14.00
2022-12-12T07:35:35.732Z,9.00
2022-12-12T07:38:05.216Z,14.00
2022-12-12T07:40:33.662Z,17.00
2022-12-12T07:43:01.712Z,12.80
2022-12-12T07:45:29.838Z,9.40
2022-12-12T07:47:57.847Z,7.00
2022-12-12T07:50:25.875Z,12.00
2022-12-12T07:52:53.887Z,12.00
2022-12-12T07:55:23.271Z,11.50
2022-12-12T07:57:53.200Z,10.20
2022-12-12T08:00:22.492Z,10.00
2022-12-12T08:02:50.507Z,15.00
2022-12-12T08:05:18.739Z,12.80
2022-12-12T08:07:47.210Z,10.60
2022-12-12T08:10:15.374Z,10.60
2022-12-12T08:12:44.750Z,9.80
2022-12-12T08:15:14.578Z,15.40
2022-12-12T08:17:42.835Z,7.00
2022-12-12T08:20:11.482Z,7.00
2022-12-12T08:22:39.492Z,14.60
2022-12-12T08:25:08.720Z,13.60
2022-12-12T08:27:36.725Z,12.80
2022-12-12T08:30:08.557Z,8.00
2022-12-12T08:32:36.765Z,7.50
2022-12-12T08:35:05.801Z,12.00
2022-12-12T08:37:33.811Z,19.50
2022-12-12T08:40:01.856Z,7.40
2022-12-12T08:42:29.881Z,14.60
2022-12-12T08:44:57.915Z,11.00
2022-12-12T08:47:27.293Z,9.50
2022-12-12T08:49:56.089Z,11.00
2022-12-12T08:52:24.100Z,10.00
2022-12-12T08:54:52.145Z,11.00
2022-12-12T08:57:25.820Z,9.00
2022-12-12T08:59:55.206Z,8.60
2022-12-12T09:02:23.501Z,9.00
2022-12-12T09:04:53.076Z,14.00
2022-12-12T09:07:21.112Z,11.50
2022-12-12T09:09:49.156Z,8.00
2022-12-12T09:12:17.168Z,11.00
2022-12-12T09:14:45.199Z,9.00
2022-12-12T09:17:13.221Z,9.00
2022-12-12T09:19:41.485Z,8.00
2022-12-12T09:22:10.858Z,11.60
2022-12-12T09:24:38.891Z,13.25
2022-12-12T09:27:06.910Z,13.00
2022-12-12T09:29:34.965Z,14.60
2022-12-12T09:32:06.505Z,5.00
2022-12-12T09:34:34.650Z,8.20
2022-12-12T09:37:03.012Z,5.00
2022-12-12T09:39:32.425Z,11.00
2022-12-12T09:42:10.771Z,8.00
2022-12-12T09:44:38.860Z,11.00
2022-12-12T09:47:08.510Z,10.00
2022-12-12T09:49:43.474Z,10.50
2022-12-12T09:52:13.214Z,12.00
2022-12-12T09:54:42.603Z,11.25
2022-12-12T09:57:21.288Z,6.00
2022-12-12T09:59:51.486Z,7.60
2022-12-12T10:02:31.832Z,9.80
2022-12-12T10:05:02.455Z,9.00
2022-12-12T10:07:34.332Z,16.00
2022-12-12T10:10:07.459Z,10.40
2022-12-12T10:12:35.464Z,9.00
2022-12-12T10:15:04.148Z,17.50
2022-12-12T10:17:34.204Z,8.50
2022-12-12T10:20:06.301Z,12.00
2022-12-12T10:22:38.125Z,8.00
2022-12-12T10:25:16.973Z,13.00
2022-12-12T10:27:44.975Z,16.00
2022-12-12T10:30:16.757Z,13.00
2022-12-12T10:32:53.528Z,14.40
2022-12-12T10:35:26.907Z,11.40
2022-12-12T10:38:02.324Z,11.50
2022-12-12T10:40:37.967Z,17.20
2022-12-12T10:43:07.487Z,16.00
2022-12-12T10:45:43.118Z,14.20
2022-12-12T10:48:11.505Z,18.00
2022-12-12T10:50:40.810Z,17.20
2022-12-12T10:53:09.913Z,12.80
2022-12-12T10:55:42.379Z,13.00
2022-12-12T10:58:10.387Z,23.00
2022-12-12T11:00:39.527Z,14.00
2022-12-12T11:03:21.395Z,19.00
2022-12-12T11:05:49.511Z,21.75
2022-12-12T11:08:23.149Z,15.40
2022-12-12T11:11:03.013Z,16.00
2022-12-12T11:13:31.248Z,10.50
2022-12-12T11:16:00.040Z,10.00
2022-12-12T11:18:29.466Z,16.00
2022-12-12T11:21:04.615Z,14.25
2022-12-12T11:23:32.623Z,15.25
2022-12-12T11:26:03.586Z,9.40
2022-12-12T11:28:34.311Z,11.50
2022-12-12T11:31:03.953Z,9.00
2022-12-12T11:33:34.035Z,8.75
2022-12-12T11:36:04.079Z,11.00
2022-12-12T11:38:33.579Z,13.00
2022-12-12T11:41:05.644Z,9.00
2022-12-12T11:43:34.016Z,7.00
2022-12-12T11:46:04.128Z,7.00
2022-12-12T11:48:56.334Z,9.00
2022-12-12T11:51:33.085Z,11.00
2022-12-12T11:54:01.251Z,7.00
2022-12-12T11:56:39.991Z,10.20
2022-12-12T11:59:21.229Z,10.50
2022-12-12T12:01:53.136Z,7.00
2022-12-12T12:04:34.868Z,7.00
2022-12-12T12:07:10.960Z,8.40
2022-12-12T12:09:43.136Z,11.40
2022-12-12T12:12:14.530Z,8.00
2022-12-12T12:14:52.591Z,8.00
2022-12-12T12:17:24.511Z,10.40
2022-12-12T12:19:54.571Z,8.00
2022-12-12T12:22:26.276Z,7.00
2022-12-12T12:25:05.376Z,9.20
2022-12-12T12:27:38.759Z,8.00
2022-12-12T12:30:21.562Z,9.80
2022-12-12T12:33:12.539Z,4.00
2022-12-12T12:35:48.776Z,9.00
2022-12-12T12:38:21.665Z,12.00
2022-12-12T12:40:58.121Z,11.50
2022-12-12T12:43:36.096Z,8.00
2022-12-12T12:46:08.575Z,6.00
2022-12-12T12:48:37.819Z,7.50
2022-12-12T12:51:07.541Z,9.00
2022-12-12T12:53:37.893Z,12.80
2022-12-12T12:56:10.646Z,10.50
2022-12-12T12:58:45.274Z,9.00
2022-12-12T13:01:14.855Z,7.60
2022-12-12T13:03:45.591Z,12.00
2022-12-12T13:06:15.696Z,10.60
2022-12-12T13:08:48.534Z,7.67
2022-12-12T13:11:19.035Z,13.50
2022-12-12T13:13:49.175Z,8.25
2022-12-12T13:16:17.680Z,8.00
2022-12-12T13:18:46.387Z,7.50
2022-12-12T13:21:17.476Z,13.50
2022-12-12T13:23:52.830Z,19.00
2022-12-12T13:26:24.375Z,11.00
2022-12-12T13:28:55.751Z,13.50
2022-12-12T13:31:40.043Z,14.00
2022-12-12T13:34:08.841Z,16.80
2022-12-12T13:36:37.987Z,8.60
2022-12-12T13:39:06.833Z,11.50
2022-12-12T13:41:57.551Z,17.40
2022-12-12T13:44:38.021Z,9.00
2022-12-12T13:47:06.395Z,8.50
2022-12-12T13:49:45.377Z,14.00
2022-12-12T13:52:26.202Z,9.00
2022-12-12T13:54:55.898Z,11.00
2022-12-12T13:57:29.600Z,15.80
2022-12-12T14:00:21.099Z,11.00
2022-12-12T14:03:03.630Z,14.00
2022-12-12T14:05:34.035Z,8.00
2022-12-12T14:08:21.365Z,8.00
2022-12-12T14:10:54.764Z,16.00
2022-12-12T14:13:43.038Z,14.25
2022-12-12T14:16:23.210Z,10.50
2022-12-12T14:19:08.527Z,10.80
2022-12-12T14:21:46.808Z,7.60
2022-12-12T14:24:48.503Z,14.20
2022-12-12T14:27:16.728Z,11.40
2022-12-12T14:29:44.865Z,11.00
2022-12-12T14:32:38.839Z,12.00
2022-12-12T14:35:18.517Z,9.20
2022-12-12T14:37:51.829Z,13.60
2022-12-12T14:40:20.783Z,10.00
2022-12-12T14:43:21.288Z,11.00
2022-12-12T14:45:54.121Z,8.80
2022-12-12T14:48:25.066Z,7.00
2022-12-12T14:51:02.885Z,7.00
2022-12-12T14:53:33.513Z,7.50
2022-12-12T14:56:02.604Z,11.00
2022-12-12T14:58:37.281Z,11.00
2022-12-12T15:01:05.869Z,7.75
2022-12-12T15:03:39.054Z,7.75
2022-12-12T15:06:27.442Z,8.50
2022-12-12T15:08:55.840Z,6.00
2022-12-12T15:11:24.693Z,12.20
2022-12-12T15:13:54.031Z,7.75
2022-12-12T15:16:25.910Z,4.40
2022-12-12T15:18:55.534Z,7.75
2022-12-12T15:21:23.591Z,7.00
2022-12-12T15:23:51.584Z,11.25
2022-12-12T15:26:21.125Z,8.00
2022-12-12T15:28:49.453Z,10.00
2022-12-12T15:31:19.202Z,7.00
2022-12-12T15:33:47.476Z,7.60
2022-12-12T15:36:26.495Z,7.20
2022-12-12T15:39:05.602Z,5.67
2022-12-12T15:41:34.022Z,8.00
2022-12-12T15:44:02.848Z,10.25
2022-12-12T15:46:31.483Z,7.20
2022-12-12T15:48:59.547Z,7.40
2022-12-12T15:51:32.199Z,8.00
2022-12-12T15:54:00.242Z,7.00
2022-12-12T15:56:29.044Z,10.25
2022-12-12T15:59:15.993Z,6.80
2022-12-12T16:01:44.389Z,5.00
2022-12-12T16:04:23.754Z,7.00
2022-12-12T16:06:53.150Z,5.00
2022-12-12T16:09:22.087Z,7.00
2022-12-12T16:11:52.233Z,7.40
2022-12-12T16:14:37.297Z,8.20
2022-12-12T16:17:09.912Z,8.00
2022-12-12T16:19:45.707Z,7.67
2022-12-12T16:22:33.021Z,7.40
2022-12-12T16:25:13.755Z,11.00
2022-12-12T16:27:41.756Z,5.00
2022-12-12T16:30:12.605Z,8.75
2022-12-12T16:32:40.784Z,6.60
2022-12-12T16:35:10.544Z,7.60
2022-12-12T16:37:39.895Z,15.00
2022-12-12T16:40:09.416Z,9.00
2022-12-12T16:42:37.546Z,11.00
2022-12-12T16:45:06.419Z,10.60
2022-12-12T16:47:34.435Z,11.00
2022-12-12T16:50:02.478Z,11.50
2022-12-12T16:52:30.513Z,11.80
2022-12-12T16:54:59.896Z,7.25
2022-12-12T16:57:27.925Z,10.60
2022-12-12T16:59:55.941Z,9.00
2022-12-12T17:02:25.564Z,8.50
2022-12-12T17:04:53.573Z,8.20
2022-12-12T17:07:21.617Z,14.00
2022-12-12T17:09:49.663Z,11.40
2022-12-12T17:12:20.231Z,13.00
2022-12-12T17:14:48.230Z,14.00
2022-12-12T17:17:16.259Z,7.75
2022-12-12T17:19:44.274Z,7.00
2022-12-12T17:22:12.312Z,10.00
2022-12-12T17:24:40.331Z,7.00
2022-12-12T17:27:08.363Z,10.25
2022-12-12T17:29:37.729Z,8.00
2022-12-12T17:32:06.357Z,14.00
2022-12-12T17:34:34.422Z,7.75
2022-12-12T17:37:02.587Z,7.00
2022-12-12T17:39:30.604Z,7.60
2022-12-12T17:41:58.638Z,4.00
2022-12-12T17:44:26.714Z,7.50
2022-12-12T17:46:56.113Z,4.80
2022-12-12T17:49:24.125Z,7.00
2022-12-12T17:51:52.168Z,8.00
2022-12-12T17:54:20.427Z,10.20
2022-12-12T17:56:48.479Z,12.00
2022-12-12T17:59:16.494Z,5.00
2022-12-12T18:01:44.852Z,9.00
2022-12-12T18:04:14.269Z,4.25
2022-12-12T18:06:42.395Z,7.40
2022-12-12T18:09:10.406Z,8.40
2022-12-12T18:11:38.944Z,8.00
2022-12-12T18:14:08.031Z,5.00
2022-12-12T18:16:36.515Z,8.60
2022-12-12T18:19:04.645Z,7.60
2022-12-12T18:24:23.870Z,5.33
2022-12-12T18:26:53.540Z,5.40
2022-12-12T18:29:21.721Z,8.20
2022-12-12T18:31:49.798Z,4.25
2022-12-12T18:34:17.904Z,6.00
2022-12-12T18:36:47.292Z,7.00
2022-12-12T18:39:15.310Z,5.00
2022-12-12T18:41:43.356Z,8.00
2022-12-12T18:44:13.242Z,8.50
2022-12-12T18:46:43.430Z,10.25
2022-12-12T18:49:13.811Z,5.00
2022-12-12T18:51:42.124Z,8.00
2022-12-12T18:54:15.499Z,6.00
2022-12-12T18:56:44.214Z,8.00
2022-12-12T18:59:12.300Z,7.50
2022-12-12T19:01:40.359Z,11.25
2022-12-12T19:04:13.182Z,11.00
2022-12-12T19:06:43.263Z,5.00
2022-12-12T19:09:15.305Z,6.40
2022-12-12T19:11:43.636Z,8.60
2022-12-12T19:14:12.301Z,10.33
2022-12-12T19:16:40.404Z,7.80
2022-12-12T19:19:09.465Z,8.60
2022-12-12T19:21:38.565Z,11.80
2022-12-12T19:24:09.185Z,13.00
2022-12-12T19:26:38.865Z,11.40
2022-12-12T19:29:08.300Z,13.40
2022-12-12T19:31:36.538Z,15.00
2022-12-12T19:34:04.647Z,8.00
2022-12-12T19:36:33.003Z,13.80
2022-12-12T19:39:03.232Z,12.50
2022-12-12T19:41:31.264Z,9.00
2022-12-12T19:44:01.689Z,11.00
2022-12-12T19:46:30.972Z,16.33
2022-12-12T19:48:59.813Z,9.25
2022-12-12T19:51:28.269Z,11.00
2022-12-12T19:53:57.927Z,12.20
2022-12-12T19:56:27.043Z,11.20
2022-12-12T19:58:55.508Z,18.20
2022-12-12T20:01:26.356Z,11.50
2022-12-12T20:03:55.755Z,11.50
2022-12-12T20:06:26.320Z,17.00
2022-12-12T20:08:55.613Z,12.60
2022-12-12T20:11:24.636Z,20.00
2022-12-12T20:13:53.570Z,16.00
2022-12-12T20:16:24.095Z,11.60
2022-12-12T20:18:52.162Z,11.00
2022-12-12T20:21:51.854Z,11.80
2022-12-12T20:24:08.970Z,15.00
2022-12-12T20:26:37.070Z,13.00
2022-12-12T20:29:05.102Z,13.00
2022-12-12T20:31:35.502Z,15.80
2022-12-12T20:34:03.556Z,15.00
2022-12-12T20:36:32.495Z,12.40
2022-12-12T20:39:01.284Z,21.25
2022-12-12T20:41:30.113Z,13.50
2022-12-12T20:43:59.296Z,15.00
2022-12-12T20:46:29.858Z,15.00
2022-12-12T20:48:59.602Z,17.00
2022-12-12T20:51:54.111Z,15.00
2022-12-12T20:54:21.500Z,18.25
2022-12-12T20:56:49.956Z,20.00
2022-12-12T20:59:18.000Z,19.00
2022-12-12T21:01:47.466Z,15.60
2022-12-12T21:04:17.155Z,15.40
2022-12-12T21:06:48.393Z,19.00
2022-12-12T21:09:23.417Z,23.00
2022-12-12T21:11:52.308Z,19.50
2022-12-12T21:14:20.379Z,19.00
2022-12-12T21:16:48.424Z,17.50
2022-12-12T21:19:18.910Z,24.00
2022-12-12T21:21:47.148Z,22.00
2022-12-12T21:24:16.774Z,22.80
2022-12-12T21:26:44.889Z,23.00
2022-12-12T21:29:12.915Z,26.00
2022-12-12T21:31:50.460Z,24.00
2022-12-12T21:34:21.066Z,15.50
2022-12-12T21:36:51.863Z,26.50
2022-12-12T21:39:19.997Z,22.60
2022-12-12T21:41:47.996Z,21.60
2022-12-12T21:44:16.010Z,26.00
2022-12-12T21:46:44.339Z,19.00
2022-12-12T21:49:26.300Z,24.00
2022-12-12T21:51:56.603Z,15.00
2022-12-12T21:54:24.763Z,19.80
2022-12-12T21:56:52.921Z,20.50
2022-12-12T21:59:20.948Z,15.60
2022-12-12T22:01:49.042Z,16.00
2022-12-12T22:04:17.076Z,20.60
2022-12-12T22:06:45.737Z,23.00
2022-12-12T22:09:15.178Z,20.00
2022-12-12T22:11:48.260Z,17.50
2022-12-12T22:14:20.096Z,12.00
2022-12-12T22:16:48.139Z,16.00
2022-12-12T22:19:16.494Z,19.00
2022-12-12T22:21:46.331Z,16.00
2022-12-12T22:24:15.797Z,15.00
2022-12-12T22:26:44.736Z,17.50
2022-12-12T22:29:13.804Z,23.00
2022-12-12T22:31:42.021Z,15.80
2022-12-12T22:34:12.271Z,17.75
2022-12-12T22:36:40.468Z,19.75
2022-12-12T22:39:16.283Z,24.50
2022-12-12T22:41:45.813Z,13.00
2022-12-12T22:44:15.797Z,16.80
2022-12-12T22:46:44.580Z,13.40
2022-12-12T22:49:13.934Z,16.00
2022-12-12T22:51:42.058Z,16.00
2022-12-12T22:54:10.097Z,17.20
2022-12-12T22:56:38.238Z,20.40
2022-12-12T22:59:07.834Z,14.00
2022-12-12T23:01:36.481Z,16.00
2022-12-12T23:04:04.613Z,19.00
2022-12-12T23:06:35.963Z,15.00
2022-12-12T23:09:05.142Z,28.40
2022-12-12T23:11:33.254Z,21.00
2022-12-12T23:14:04.616Z,19.00
2022-12-12T23:16:35.292Z,13.00
2022-12-12T23:19:03.796Z,18.20
2022-12-12T23:21:31.884Z,16.60
2022-12-12T23:23:59.927Z,22.40
2022-12-12T23:26:30.283Z,21.80
2022-12-12T23:28:58.593Z,16.00
2022-12-12T23:31:27.803Z,16.75
2022-12-12T23:33:58.063Z,19.00
2022-12-12T23:36:26.168Z,19.00
2022-12-12T23:38:55.631Z,19.40
2022-12-12T23:41:23.646Z,20.60
2022-12-12T23:43:51.799Z,22.20
2022-12-12T23:46:29.400Z,17.00
2022-12-12T23:48:59.346Z,20.00
2022-12-12T23:51:28.142Z,19.80
2022-12-12T23:53:57.666Z,16.75
2022-12-12T23:56:25.692Z,16.25
2022-12-12T23:58:53.799Z,16.00
